createdAt,value
2023-01-28T00:01:19.526Z,3.71
2023-01-28T00:03:52.424Z,3.66
2023-01-28T00:06:23.111Z,3.64
2023-01-28T00:08:54.881Z,3.64
2023-01-28T00:11:25.853Z,3.69
2023-01-28T00:13:56.655Z,3.73
2023-01-28T00:16:28.044Z,3.74
2023-01-28T00:18:58.812Z,3.76
2023-01-28T00:21:29.255Z,3.80
2023-01-28T00:23:59.932Z,3.81
2023-01-28T00:26:30.540Z,3.83
2023-01-28T00:29:01.066Z,3.85
2023-01-28T00:31:31.614Z,3.85
2023-01-28T00:34:02.753Z,3.86
2023-01-28T00:36:33.854Z,3.84
2023-01-28T00:39:04.511Z,3.82
2023-01-28T00:41:36.244Z,3.80
2023-01-28T00:44:09.738Z,3.77
2023-01-28T00:46:42.146Z,3.75
2023-01-28T00:49:13.073Z,3.71
2023-01-28T00:51:44.770Z,3.68
2023-01-28T00:54:16.456Z,3.64
2023-01-28T00:56:47.133Z,3.61
2023-01-28T00:59:17.659Z,3.61
2023-01-28T01:01:48.132Z,3.64
2023-01-28T01:04:26.738Z,3.67
2023-01-28T01:06:57.369Z,3.70
2023-01-28T01:09:29.670Z,3.75
2023-01-28T01:12:00.555Z,3.78
2023-01-28T01:14:31.161Z,3.80
2023-01-28T01:17:01.641Z,3.83
2023-01-28T01:19:32.651Z,3.84
2023-01-28T01:22:03.278Z,3.84
2023-01-28T01:24:34.898Z,3.84
2023-01-28T01:27:06.166Z,3.82
2023-01-28T01:29:36.832Z,3.81
2023-01-28T01:32:07.914Z,3.79
2023-01-28T01:34:38.462Z,3.77
2023-01-28T01:37:10.558Z,3.75
2023-01-28T01:39:41.248Z,3.71
2023-01-28T01:42:14.796Z,3.68
2023-01-28T01:44:59.347Z,3.64
2023-01-28T01:47:36.008Z,3.61
2023-01-28T01:50:13.729Z,3.59
2023-01-28T01:52:46.083Z,3.62
2023-01-28T01:55:20.489Z,3.64
2023-01-28T01:57:53.400Z,3.65
2023-01-28T02:00:24.648Z,3.66
2023-01-28T02:02:56.844Z,3.66
2023-01-28T02:05:27.658Z,3.67
2023-01-28T02:08:21.118Z,3.67
2023-01-28T02:10:56.451Z,3.67
2023-01-28T02:13:30.668Z,3.66
2023-01-28T02:16:05.160Z,3.64
2023-01-28T02:18:36.342Z,3.63
2023-01-28T02:21:46.645Z,3.62
2023-01-28T02:24:37.494Z,3.60
2023-01-28T02:27:29.284Z,3.58
2023-01-28T02:30:07.368Z,3.55
2023-01-28T02:32:44.939Z,3.53
2023-01-28T02:35:23.449Z,3.49
2023-01-28T02:37:59.627Z,3.46
2023-01-28T02:40:55.549Z,3.45
2023-01-28T02:43:34.524Z,3.50
2023-01-28T02:46:34.749Z,3.55
2023-01-28T02:49:09.724Z,3.59
2023-01-28T02:52:11.892Z,3.64
2023-01-28T02:54:56.150Z,3.66
2023-01-28T02:57:38.657Z,3.68
2023-01-28T03:00:16.410Z,3.68
2023-01-28T03:02:54.559Z,3.65
2023-01-28T03:05:29.326Z,3.63
2023-01-28T03:08:00.782Z,3.60
2023-01-28T03:10:31.588Z,3.58
2023-01-28T03:13:20.239Z,3.54
2023-01-28T03:16:08.948Z,3.50
2023-01-28T03:19:04.009Z,3.44
2023-01-28T03:21:57.580Z,3.39
2023-01-28T03:24:50.536Z,3.34
2023-01-28T03:27:45.635Z,3.31
2023-01-28T03:30:36.623Z,3.28
2023-01-28T03:33:30.077Z,3.25
2023-01-28T03:36:18.449Z,3.20
2023-01-28T03:38:49.620Z,3.16
2023-01-28T03:41:25.252Z,3.18
2023-01-28T03:43:57.205Z,3.20
2023-01-28T03:46:27.700Z,3.22
2023-01-28T03:48:58.991Z,3.26
2023-01-28T03:51:29.985Z,3.29
2023-01-28T03:54:00.461Z,3.28
2023-01-28T03:56:37.531Z,3.27
2023-01-28T03:59:08.587Z,3.24
2023-01-28T04:01:38.915Z,3.20
2023-01-28T04:04:23.771Z,3.18
2023-01-28T04:06:54.086Z,3.13
2023-01-28T04:09:27.582Z,3.10
2023-01-28T04:12:27.275Z,3.03
2023-01-28T04:14:58.272Z,2.99
2023-01-28T04:17:31.545Z,2.98
2023-01-28T04:20:02.126Z,2.97
2023-01-28T04:22:33.292Z,2.97
2023-01-28T04:25:03.864Z,2.96
2023-01-28T04:27:34.381Z,2.98
2023-01-28T04:30:15.333Z,3.01
2023-01-28T04:32:52.316Z,3.03
2023-01-28T04:35:39.646Z,3.07
2023-01-28T04:38:30.331Z,3.09
2023-01-28T04:41:21.792Z,3.11
2023-01-28T04:43:52.260Z,3.14
2023-01-28T04:46:34.523Z,3.13
2023-01-28T04:49:28.097Z,3.12
2023-01-28T04:52:25.515Z,3.08
2023-01-28T04:55:12.207Z,3.04
2023-01-28T04:57:42.987Z,3.03
2023-01-28T05:00:15.035Z,3.03
2023-01-28T05:02:45.613Z,3.01
2023-01-28T05:05:16.681Z,2.97
2023-01-28T05:07:59.948Z,2.91
2023-01-28T05:10:30.431Z,2.87
2023-01-28T05:13:01.464Z,2.83
2023-01-28T05:15:32.054Z,2.79
2023-01-28T05:18:02.519Z,2.76
2023-01-28T05:20:38.235Z,2.82
2023-01-28T05:23:08.708Z,2.84
2023-01-28T05:25:49.245Z,2.84
2023-01-28T05:28:19.744Z,2.88
2023-01-28T05:30:51.004Z,2.90
2023-01-28T05:33:22.184Z,2.89
2023-01-28T05:35:52.950Z,2.90
2023-01-28T05:38:24.753Z,2.88
2023-01-28T05:40:55.249Z,2.83
2023-01-28T05:43:25.948Z,2.80
2023-01-28T05:46:26.109Z,2.77
2023-01-28T05:49:26.439Z,2.73
2023-01-28T05:52:19.775Z,2.71
2023-01-28T05:54:50.545Z,2.68
2023-01-28T05:57:21.291Z,2.65
2023-01-28T05:59:51.770Z,2.63
2023-01-28T06:02:22.396Z,2.63
2023-01-28T06:04:56.401Z,2.62
2023-01-28T06:07:26.974Z,2.61
2023-01-28T06:09:57.491Z,2.57
2023-01-28T06:12:28.359Z,2.58
2023-01-28T06:15:25.130Z,2.60
2023-01-28T06:18:05.042Z,2.61
2023-01-28T06:20:38.813Z,2.66
2023-01-28T06:23:09.838Z,2.69
2023-01-28T06:25:40.506Z,2.71
2023-01-28T06:28:14.492Z,2.73
2023-01-28T06:30:45.273Z,2.75
2023-01-28T06:33:15.717Z,2.73
2023-01-28T06:35:46.176Z,2.70
2023-01-28T06:38:17.037Z,2.71
2023-01-28T06:40:51.702Z,2.69
2023-01-28T06:43:27.503Z,2.67
2023-01-28T06:45:58.492Z,2.65
2023-01-28T06:48:29.852Z,2.62
2023-01-28T06:51:00.318Z,2.59
2023-01-28T06:53:31.911Z,2.56
2023-01-28T06:56:02.314Z,2.55
2023-01-28T06:58:32.754Z,2.55
2023-01-28T07:01:03.935Z,2.56
2023-01-28T07:03:34.345Z,2.55
2023-01-28T07:06:05.226Z,2.54
2023-01-28T07:08:35.823Z,2.50
2023-01-28T07:11:06.892Z,2.54
2023-01-28T07:13:37.585Z,2.57
2023-01-28T07:16:09.481Z,2.62
2023-01-28T07:18:39.889Z,2.67
2023-01-28T07:21:10.547Z,2.72
2023-01-28T07:23:40.997Z,2.75
2023-01-28T07:26:11.567Z,2.76
2023-01-28T07:28:42.096Z,2.77
2023-01-28T07:31:12.660Z,2.77
2023-01-28T07:33:43.204Z,2.76
2023-01-28T07:36:13.683Z,2.77
2023-01-28T07:38:44.248Z,2.76
2023-01-28T07:41:14.793Z,2.76
2023-01-28T07:43:45.690Z,2.75
2023-01-28T07:46:16.173Z,2.72
2023-01-28T07:48:46.845Z,2.70
2023-01-28T07:51:17.299Z,2.64
2023-01-28T07:53:47.799Z,2.61
2023-01-28T07:56:18.229Z,2.61
2023-01-28T07:58:52.167Z,2.62
2023-01-28T08:01:22.651Z,2.60
2023-01-28T08:03:53.154Z,2.57
2023-01-28T08:06:23.649Z,2.54
2023-01-28T08:08:54.244Z,2.52
2023-01-28T08:11:24.696Z,2.55
2023-01-28T08:13:55.135Z,2.60
2023-01-28T08:16:25.554Z,2.63
2023-01-28T08:18:56.534Z,2.65
2023-01-28T08:21:27.169Z,2.68
2023-01-28T08:23:58.722Z,2.71
2023-01-28T08:26:29.361Z,2.70
2023-01-28T08:28:59.879Z,2.69
2023-01-28T08:31:30.715Z,2.67
2023-01-28T08:34:02.312Z,2.65
2023-01-28T08:36:33.054Z,2.64
2023-01-28T08:39:03.493Z,2.61
2023-01-28T08:41:34.029Z,2.59
2023-01-28T08:44:04.544Z,2.58
2023-01-28T08:46:35.059Z,2.57
2023-01-28T08:49:05.542Z,2.56
2023-01-28T08:51:36.229Z,2.53
2023-01-28T08:54:06.738Z,2.52
2023-01-28T08:56:39.135Z,2.52
2023-01-28T08:59:09.954Z,2.52
2023-01-28T09:01:40.378Z,2.52
2023-01-28T09:04:10.846Z,2.54
2023-01-28T09:06:41.365Z,2.59
2023-01-28T09:09:11.798Z,2.64
2023-01-28T09:11:42.310Z,2.66
2023-01-28T09:14:12.928Z,2.73
2023-01-28T09:16:43.339Z,2.78
2023-01-28T09:19:15.791Z,2.81
2023-01-28T09:21:46.567Z,2.83
2023-01-28T09:24:16.986Z,2.85
2023-01-28T09:26:49.393Z,2.87
2023-01-28T09:29:19.915Z,2.87
2023-01-28T09:31:50.978Z,2.85
2023-01-28T09:34:21.455Z,2.85
2023-01-28T09:36:51.973Z,2.85
2023-01-28T09:39:22.465Z,2.85
2023-01-28T09:42:05.463Z,2.85
2023-01-28T09:44:57.088Z,2.84
2023-01-28T09:47:32.068Z,2.83
2023-01-28T09:50:06.261Z,2.83
2023-01-28T09:52:42.066Z,2.84
2023-01-28T09:55:21.118Z,2.83
2023-01-28T09:57:55.479Z,2.81
2023-01-28T10:00:29.354Z,2.76
2023-01-28T10:03:26.108Z,2.72
2023-01-28T10:06:09.524Z,2.68
2023-01-28T10:08:54.390Z,2.67
2023-01-28T10:11:39.566Z,2.66
2023-01-28T10:14:11.865Z,2.67
2023-01-28T10:16:48.024Z,2.65
2023-01-28T10:19:23.348Z,2.65
2023-01-28T10:22:00.145Z,2.70
2023-01-28T10:24:35.909Z,2.79
2023-01-28T10:27:13.845Z,2.85
2023-01-28T10:29:46.560Z,2.91
2023-01-28T10:32:29.068Z,2.97
2023-01-28T10:35:01.729Z,2.99
2023-01-28T10:37:35.864Z,2.99
2023-01-28T10:40:13.658Z,2.98
2023-01-28T10:42:44.891Z,2.93
2023-01-28T10:45:22.361Z,2.90
2023-01-28T10:48:01.135Z,2.89
2023-01-28T10:50:33.119Z,2.88
2023-01-28T10:53:06.655Z,2.87
2023-01-28T10:55:47.633Z,2.83
2023-01-28T10:58:21.997Z,2.82
2023-01-28T11:00:58.445Z,2.82
2023-01-28T11:03:30.903Z,2.81
2023-01-28T11:06:02.576Z,2.79
2023-01-28T11:08:44.497Z,2.76
2023-01-28T11:11:17.407Z,2.75
2023-01-28T11:13:55.711Z,2.75
2023-01-28T11:16:27.401Z,2.75
2023-01-28T11:19:06.458Z,2.69
2023-01-28T11:21:36.283Z,2.63
2023-01-28T11:24:16.092Z,2.61
2023-01-28T11:26:53.236Z,2.64
2023-01-28T11:29:31.668Z,2.66
2023-01-28T11:32:03.306Z,2.68
2023-01-28T11:34:36.669Z,2.66
2023-01-28T11:37:16.477Z,2.71
2023-01-28T11:39:46.907Z,2.76
2023-01-28T11:42:20.970Z,2.83
2023-01-28T11:44:51.929Z,2.88
2023-01-28T11:47:47.686Z,2.96
2023-01-28T11:50:38.609Z,3.03
2023-01-28T11:53:29.777Z,3.06
2023-01-28T11:56:14.075Z,3.09
2023-01-28T11:58:53.631Z,3.07
2023-01-28T12:01:32.770Z,3.05
2023-01-28T12:04:25.092Z,3.03
2023-01-28T12:07:07.224Z,3.02
2023-01-28T12:09:47.067Z,2.98
2023-01-28T12:12:53.012Z,2.94
2023-01-28T12:15:57.482Z,2.86
2023-01-28T12:18:42.412Z,2.81
2023-01-28T12:21:22.153Z,2.77
2023-01-28T12:24:10.561Z,2.72
2023-01-28T12:26:51.282Z,2.68
2023-01-28T12:29:31.545Z,2.65
2023-01-28T12:32:18.887Z,2.65
2023-01-28T12:35:03.947Z,2.64
2023-01-28T12:37:46.545Z,2.60
2023-01-28T12:40:34.067Z,2.54
2023-01-28T12:43:08.006Z,2.48
2023-01-28T12:45:42.512Z,2.44
2023-01-28T12:48:17.320Z,2.41
2023-01-28T12:50:50.836Z,2.37
2023-01-28T12:53:29.482Z,2.34
2023-01-28T12:56:07.059Z,2.30
2023-01-28T12:58:46.163Z,2.26
2023-01-28T13:01:22.325Z,2.25
2023-01-28T13:03:58.593Z,2.25
2023-01-28T13:06:34.352Z,2.22
2023-01-28T13:09:13.005Z,2.19
2023-01-28T13:11:44.314Z,2.18
2023-01-28T13:14:16.405Z,2.18
2023-01-28T13:16:46.913Z,2.16
2023-01-28T13:19:37.498Z,2.16
2023-01-28T13:22:27.207Z,2.24
2023-01-28T13:24:57.694Z,2.30
2023-01-28T13:27:29.518Z,2.33
2023-01-28T13:30:23.647Z,2.36
2023-01-28T13:33:01.366Z,2.37
2023-01-28T13:35:40.303Z,2.38
2023-01-28T13:38:17.716Z,2.40
2023-01-28T13:40:57.555Z,2.41
2023-01-28T13:43:38.706Z,2.38
2023-01-28T13:46:12.053Z,2.37
2023-01-28T13:48:52.132Z,2.36
2023-01-28T13:51:24.975Z,2.35
2023-01-28T13:54:01.004Z,2.34
2023-01-28T13:56:40.470Z,2.31
2023-01-28T13:59:37.210Z,2.29
2023-01-28T14:02:37.962Z,2.26
2023-01-28T14:05:47.652Z,2.18
2023-01-28T14:08:45.126Z,2.11
2023-01-28T14:11:44.716Z,2.07
2023-01-28T14:14:46.389Z,2.03
2023-01-28T14:17:25.322Z,1.98
2023-01-28T14:19:58.581Z,1.94
2023-01-28T14:22:29.468Z,1.90
2023-01-28T14:25:03.680Z,1.89
2023-01-28T14:27:39.650Z,1.86
2023-01-28T14:30:21.942Z,1.82
2023-01-28T14:32:55.076Z,1.79
2023-01-28T14:35:31.589Z,1.76
2023-01-28T14:38:08.800Z,1.73
2023-01-28T14:40:41.080Z,1.71
2023-01-28T14:43:17.931Z,1.70
2023-01-28T14:46:05.522Z,1.70
2023-01-28T14:48:43.479Z,1.65
2023-01-28T14:51:43.735Z,1.59
2023-01-28T14:54:35.931Z,1.54
2023-01-28T14:57:22.032Z,1.52
2023-01-28T14:59:58.136Z,1.49
2023-01-28T15:02:30.415Z,1.47
2023-01-28T15:05:12.376Z,1.45
2023-01-28T15:07:47.095Z,1.42
2023-01-28T15:10:25.499Z,1.39
2023-01-28T15:12:59.728Z,1.36
2023-01-28T15:15:34.813Z,1.34
2023-01-28T15:18:12.485Z,1.27
2023-01-28T15:20:47.817Z,1.24
2023-01-28T15:23:22.955Z,1.20
2023-01-28T15:25:55.465Z,1.17
2023-01-28T15:28:31.071Z,1.12
2023-01-28T15:31:02.264Z,1.05
2023-01-28T15:33:32.838Z,1.03
2023-01-28T15:36:03.678Z,1.01
2023-01-28T15:38:34.170Z,0.93
2023-01-28T15:41:07.002Z,0.90
2023-01-28T15:43:39.468Z,0.85
2023-01-28T15:46:14.851Z,0.83
2023-01-28T15:48:47.786Z,0.82
2023-01-28T15:51:24.866Z,0.82
2023-01-28T15:54:00.019Z,0.81
2023-01-28T15:56:31.477Z,0.79
2023-01-28T15:59:18.170Z,0.77
2023-01-28T16:01:48.937Z,0.76
2023-01-28T16:04:30.395Z,0.73
2023-01-28T16:07:05.478Z,0.71
2023-01-28T16:09:37.580Z,0.66
2023-01-28T16:12:10.073Z,0.63
2023-01-28T16:14:46.325Z,0.60
2023-01-28T16:17:21.653Z,0.55
2023-01-28T16:19:57.363Z,0.51
2023-01-28T16:22:34.282Z,0.47
2023-01-28T16:25:24.537Z,0.44
2023-01-28T16:27:55.009Z,0.44
2023-01-28T16:30:26.290Z,0.44
2023-01-28T16:32:57.217Z,0.45
2023-01-28T16:35:47.142Z,0.43
2023-01-28T16:38:23.396Z,0.42
2023-01-28T16:40:53.895Z,0.38
2023-01-28T16:43:24.423Z,0.37
2023-01-28T16:45:54.859Z,0.34
2023-01-28T16:48:25.308Z,0.30
2023-01-28T16:50:55.760Z,0.29
2023-01-28T16:53:33.606Z,0.29
2023-01-28T16:56:06.128Z,0.27
2023-01-28T16:58:38.040Z,0.27
2023-01-28T17:01:09.062Z,0.25
2023-01-28T17:03:40.249Z,0.24
2023-01-28T17:06:15.079Z,0.23
2023-01-28T17:08:45.686Z,0.21
2023-01-28T17:11:16.486Z,0.18
2023-01-28T17:13:46.926Z,0.15
2023-01-28T17:16:17.471Z,0.13
2023-01-28T17:18:50.587Z,0.13
2023-01-28T17:21:21.598Z,0.17
2023-01-28T17:23:52.027Z,0.21
2023-01-28T17:26:22.469Z,0.22
2023-01-28T17:28:56.376Z,0.18
2023-01-28T17:31:27.510Z,0.16
2023-01-28T17:33:59.688Z,0.15
2023-01-28T17:36:30.576Z,0.16
2023-01-28T17:39:01.378Z,0.16
2023-01-28T17:41:31.897Z,0.16
2023-01-28T17:44:04.636Z,0.16
2023-01-28T17:46:35.189Z,0.18
2023-01-28T17:49:05.729Z,0.21
2023-01-28T17:51:36.270Z,0.21
2023-01-28T17:54:07.088Z,0.16
2023-01-28T17:56:38.354Z,0.17
2023-01-28T17:59:11.644Z,0.20
2023-01-28T18:01:42.078Z,0.22
2023-01-28T18:04:13.168Z,0.25
2023-01-28T18:06:44.869Z,0.26
2023-01-28T18:09:15.315Z,0.27
2023-01-28T18:11:47.682Z,0.30
2023-01-28T18:14:18.110Z,0.28
2023-01-28T18:16:48.635Z,0.25
2023-01-28T18:19:19.036Z,0.22
2023-01-28T18:21:53.616Z,0.22
2023-01-28T18:24:25.412Z,0.22
2023-01-28T18:26:58.297Z,0.20
2023-01-28T18:29:30.285Z,0.22
2023-01-28T18:32:01.035Z,0.21
2023-01-28T18:34:32.420Z,0.22
2023-01-28T18:37:06.675Z,0.25
